Flight Track Log - Related Links

Times and Time Zones

All times are in EDT time to prevent confusion due to time zone crossing. See the EGF3900 flight status page for this flight to view local times or setup timezone preferences in your user account.

Time Position Orientation Groundspeed Altitude Reporting Facility
EDT Latitude Longitude Course Direction KTS MPH feet Rate Location/Type
Mon 03:41:41 PM 38.7894 -92.2247 46° Northeast 155 178 27,000  Level Kansas City Center
Mon 03:42:43 PM 38.7922 -92.1719 86° East 240 276 4,000 -9,629 Descending Kansas City Center
Mon 03:43:45 PM 38.8553 -92.1556 11° North 233 268 7,100 2,780 Climbing Kansas City Center
Mon 03:44:46 PM 38.9228 -92.0869 38° Northeast 253 291 9,700 2,049 Climbing Kansas City Center
Mon 03:45:00 PM 39.0088 -91.9494 46° Northeast  Level FlightAware Approximate
Mon 03:45:48 PM 38.9850 -92.0094 44° Northeast 297 342 11,300  Level Kansas City Center
Mon 03:46:50 PM 39.0536 -91.9214 45° Northeast 335 386 12,900 1,597 Climbing Kansas City Center
Mon 03:47:52 PM 39.1261 -91.8306 44° Northeast 356 410 14,600 1,645 Climbing Kansas City Center
Mon 03:48:54 PM 39.1992 -91.7361 45° Northeast 367 422 16,300 1,645 Climbing Kansas City Center
Mon 03:49:56 PM 39.2708 -91.6464 44° Northeast 370 426 18,000 1,597 Climbing Kansas City Center
Mon 03:50:58 PM 39.3469 -91.5478 45° Northeast 381 438 19,600 1,694 Climbing Kansas City Center
Mon 03:52:00 PM 39.4389 -91.4308 44° Northeast 385 443 21,500 1,645 Climbing Kansas City Center
Mon 03:53:02 PM 39.5181 -91.3281 45° Northeast 393 452 23,000 1,500 Climbing Kansas City Center
Mon 03:54:04 PM 39.5983 -91.2233 45° Northeast 403 464 24,600 1,500 Climbing Kansas City Center
Mon 03:55:06 PM 39.6797 -91.1189 45° Northeast 407 468 26,100 1,161 Climbing Kansas City Center
Mon 03:56:08 PM 39.7675 -91.0194 41° Northeast 411 473 27,000 435 Climbing Kansas City Center
Mon 03:57:10 PM 39.8628 -90.9269 37° Northeast 425 489 27,000  Level Kansas City Center
Mon 03:58:12 PM 39.9819 -90.8053 38° Northeast 443 510 27,000  Level Kansas City Center
Mon 03:59:14 PM 40.0839 -90.7017 38° Northeast 456 525 27,000  Level Kansas City Center
Mon 04:00:00 PM 40.1647 -90.6214 37° Northeast 464 534 27,000  Level Chicago Center
Mon 04:01:02 PM 40.2678 -90.5161 38° Northeast 462 532 27,000  Level Chicago Center
Mon 04:02:05 PM 40.3700 -90.4117 38° Northeast 463 533 27,000  Level Chicago Center
Mon 04:03:07 PM 40.4719 -90.3069 38° Northeast 463 533 27,000  Level Chicago Center
Mon 04:04:09 PM 40.5836 -90.1917 38° Northeast 463 533 27,000  Level Chicago Center
Mon 04:05:11 PM 40.6850 -90.0867 38° Northeast 464 534 27,000 -387 Level Chicago Center
Mon 04:06:13 PM 40.7878 -89.9819 38° Northeast 469 540 26,200 -823 Descending Chicago Center
Mon 04:07:15 PM 40.8869 -89.8756 39° Northeast 463 533 25,300 -919 Descending Chicago Center
Mon 04:08:17 PM 40.9847 -89.7728 38° Northeast 453 521 24,300 -624 Descending Chicago Center
Mon 04:09:20 PM 41.1028 -89.6486 38° Northeast 455 524 24,000 -145 Descending Chicago Center
Mon 04:10:21 PM 41.1869 -89.5247 48° Northeast 462 532 24,000 -878 Level Chicago Center
Mon 04:11:23 PM 41.2475 -89.3761 62° Northeast 458 527 22,200 -2,323 Descending Chicago Center
Mon 04:12:25 PM 41.3058 -89.2303 62° Northeast 446 513 19,200 -2,758 Descending Chicago Center
Mon 04:13:27 PM 41.3581 -89.0956 63° Northeast 425 489 16,500 -2,758 Descending Chicago Center
Mon 04:14:29 PM 41.4192 -88.9422 62° Northeast 391 450 13,500 -2,419 Descending Chicago Center
Mon 04:15:31 PM 41.4683 -88.8164 62° Northeast 384 442 11,500 -1,210 Descending Chicago Center
Mon 04:16:33 PM 41.5181 -88.6922 62° Northeast 381 438 11,000 -242 Descending Chicago Center
Mon 04:17:35 PM 41.5686 -88.5636 62° Northeast 388 447 11,000  Level Chicago Center
Mon 04:18:37 PM 41.6222 -88.4369 60° Northeast 390 449 11,000 -192 Level Chicago Center
Mon 04:19:40 PM 41.6872 -88.3300 51° Northeast 365 420 10,600 -1,008 Descending Chicago Center
Mon 04:20:42 PM 41.7522 -88.2203 52° Northeast 313 360 8,900 -1,645 Descending Chicago Center
Mon 04:21:44 PM 41.8036 -88.1322 52° Northeast 301 346 7,200 -919 Descending Chicago Center
Mon 04:22:46 PM 41.8758 -88.1303 North 284 327 7,000 -97 Descending Chicago Center
Mon 04:23:48 PM 41.9497 -88.1581 344° North 280 322 7,000 -290 Level Chicago Center
Mon 04:24:50 PM 42.0133 -88.1519 North 238 274 6,400 -919 Descending Chicago Center
Mon 04:25:52 PM 42.0719 -88.1506 North 217 250 5,100 -1,398 Descending Chicago Center
Mon 04:26:33 PM 42.1167 -88.1167 29° Northeast 211 243 4,000 -1,248 Descending Chicago TRACON
Mon 04:27:33 PM 42.1000 -88.0500 109° East 186 214 3,000 -737 Descending Chicago TRACON
Mon 04:28:27 PM 42.0667 -88.0167 143° Southeast 182 209 2,600 -632 Descending Chicago TRACON
Mon 04:29:27 PM 42.0333 -87.9833 143° Southeast 148 170 1,800 -750 Descending Chicago TRACON
Mon 04:30:27 PM 42.0000 -87.9500 143° Southeast 134 154 1,100 -700 Descending Chicago TRACON
Mon 04:32:00 PM 41.9817 -87.9067 140° Southeast  Level Estimated

Login

Don't have an account? Register now (free) for customized features, flight alerts, and more!